Time;durP1;ratioP1;P1;durP2;ratioP2;P2;SDS_P1;SDS_P2;PMS_P1;PMS_P2;Temp;Humidity;BMP_temperature;BMP_pressure;BME280_temperature;BME280_humidity;BME280_pressure;Samples;Min_cycle;Max_cycle;Signal;HPM_P1;HPM_P2
2021/10/27 00:00:23;;;;;;;9.50;5.43;;;14.70;99.90;;;;;;2079106;28;20457;-72
2021/10/27 00:01:24;;;;;;;7.32;4.95;;;14.70;99.90;;;;;;2079691;28;20025;-71
2021/10/27 00:02:24;;;;;;;9.48;5.35;;;14.70;99.90;;;;;;2080209;28;20040;-71
2021/10/27 00:03:25;;;;;;;8.38;4.95;;;14.70;99.90;;;;;;2072350;28;20532;-71
2021/10/27 00:04:26;;;;;;;7.78;4.80;;;14.70;99.90;;;;;;2071883;28;20044;-72
2021/10/27 00:05:26;;;;;;;8.48;5.40;;;14.70;99.90;;;;;;2071961;28;20036;-72
2021/10/27 00:06:28;;;;;;;7.63;5.03;;;14.70;99.90;;;;;;2071370;28;20120;-71
2021/10/27 00:07:28;;;;;;;9.70;5.47;;;14.70;99.90;;;;;;2071564;28;20144;-71
2021/10/27 00:08:29;;;;;;;10.27;6.55;;;14.70;99.90;;;;;;2071423;28;20108;-71
2021/10/27 00:09:30;;;;;;;11.23;5.80;;;14.70;99.90;;;;;;2071946;28;20683;-71
2021/10/27 00:10:30;;;;;;;9.05;5.60;;;14.70;99.90;;;;;;2079621;28;20064;-71
2021/10/27 00:11:31;;;;;;;8.98;5.65;;;14.70;99.90;;;;;;2080236;28;20037;-71
2021/10/27 00:12:32;;;;;;;8.52;5.75;;;14.70;99.90;;;;;;2077859;28;20091;-71
2021/10/27 00:13:32;;;;;;;6.97;5.13;;;14.70;99.90;;;;;;2072249;28;20466;-71
2021/10/27 00:14:33;;;;;;;6.28;5.25;;;14.70;99.90;;;;;;2071695;28;20041;-72
2021/10/27 00:15:34;;;;;;;8.20;5.75;;;14.70;99.90;;;;;;2071951;28;20028;-72
2021/10/27 00:16:35;;;;;;;8.98;6.57;;;14.70;99.90;;;;;;2072666;28;20033;-72
2021/10/27 00:17:36;;;;;;;8.93;5.35;;;14.70;99.90;;;;;;2079668;28;20496;-72
2021/10/27 00:18:37;;;;;;;8.90;5.72;;;14.70;99.90;;;;;;2079293;28;20104;-72
2021/10/27 00:19:37;;;;;;;8.52;5.78;;;14.70;99.90;;;;;;2082064;28;20082;-72
2021/10/27 00:20:38;;;;;;;8.40;6.10;;;14.80;99.90;;;;;;2079143;28;20041;-72
2021/10/27 00:21:39;;;;;;;13.00;5.45;;;14.80;99.90;;;;;;2073635;28;20022;-72
2021/10/27 00:22:40;;;;;;;10.23;5.40;;;14.80;99.90;;;;;;2074502;28;20104;-72
2021/10/27 00:23:41;;;;;;;7.35;5.03;;;14.80;99.90;;;;;;2072054;28;20029;-72
2021/10/27 00:24:41;;;;;;;11.70;5.70;;;14.80;99.90;;;;;;2071927;28;20022;-72
2021/10/27 00:25:42;;;;;;;7.03;4.57;;;14.80;99.90;;;;;;2071989;28;20021;-72
2021/10/27 00:26:43;;;;;;;7.00;4.93;;;14.80;99.90;;;;;;2079740;28;20064;-72
2021/10/27 00:27:43;;;;;;;11.35;5.55;;;14.80;99.90;;;;;;2079363;28;20039;-71
2021/10/27 00:28:44;;;;;;;6.03;4.75;;;14.80;99.90;;;;;;2079452;28;20025;-72
2021/10/27 00:29:45;;;;;;;7.05;4.57;;;14.80;99.90;;;;;;2079994;28;20108;-71
2021/10/27 00:30:45;;;;;;;8.23;5.05;;;14.90;99.90;;;;;;2074293;28;20126;-71
2021/10/27 00:31:46;;;;;;;5.63;4.45;;;14.90;99.90;;;;;;2072133;28;20022;-72
2021/10/27 00:32:46;;;;;;;9.00;4.80;;;14.80;99.90;;;;;;2072070;28;20030;-72
2021/10/27 00:33:47;;;;;;;6.60;4.50;;;14.80;99.90;;;;;;2071100;28;20077;-71
2021/10/27 00:34:47;;;;;;;5.88;4.90;;;14.80;99.90;;;;;;2075524;28;20470;-71
2021/10/27 00:35:48;;;;;;;6.40;4.70;;;14.80;99.90;;;;;;2072581;28;20026;-72
2021/10/27 00:36:49;;;;;;;10.13;4.85;;;14.80;99.90;;;;;;2076410;28;20026;-71
2021/10/27 00:37:49;;;;;;;8.02;5.38;;;14.80;99.90;;;;;;2077183;28;20505;-71
2021/10/27 00:38:50;;;;;;;7.05;4.75;;;14.90;99.90;;;;;;2073755;28;20025;-72
2021/10/27 00:39:50;;;;;;;6.43;4.63;;;14.80;99.90;;;;;;2071696;28;20494;-72
2021/10/27 00:40:51;;;;;;;4.88;4.07;;;14.80;99.90;;;;;;2071933;28;20032;-72
2021/10/27 00:41:52;;;;;;;7.32;5.28;;;14.80;99.90;;;;;;2071715;28;20470;-71
2021/10/27 00:42:53;;;;;;;6.60;4.53;;;14.80;99.90;;;;;;2071905;28;20033;-72
2021/10/27 00:43:54;;;;;;;6.55;4.75;;;14.90;99.90;;;;;;2071672;28;20385;-72
2021/10/27 00:44:54;;;;;;;6.72;4.35;;;14.90;99.90;;;;;;2072054;28;20412;-71
2021/10/27 00:45:55;;;;;;;6.90;4.72;;;14.80;99.90;;;;;;2072082;28;20026;-72
2021/10/27 00:47:00;;;;;;;5.55;4.20;;;14.80;99.90;;;;;;2071696;28;20050;-72
2021/10/27 00:48:01;;;;;;;7.22;4.75;;;14.80;99.90;;;;;;2074600;28;20321;-72
2021/10/27 00:49:02;;;;;;;5.85;3.90;;;14.80;99.90;;;;;;2079582;28;20053;-72
2021/10/27 00:50:04;;;;;;;4.88;4.20;;;14.90;99.90;;;;;;2079685;28;20481;-72
2021/10/27 00:51:04;;;;;;;8.15;4.32;;;14.80;99.90;;;;;;2079964;28;20026;-72
2021/10/27 00:52:09;;;;;;;7.22;5.18;;;14.90;99.90;;;;;;2078469;28;20044;-72
2021/10/27 00:53:10;;;;;;;7.25;4.75;;;14.80;99.90;;;;;;2076668;28;20437;-72
2021/10/27 00:54:10;;;;;;;9.20;4.97;;;14.80;99.90;;;;;;2071920;28;20025;-72
2021/10/27 00:55:11;;;;;;;7.93;4.35;;;14.80;99.90;;;;;;2071728;28;20120;-72
2021/10/27 00:56:12;;;;;;;9.73;5.25;;;14.80;99.90;;;;;;2071649;28;20509;-72
2021/10/27 00:57:15;;;;;;;7.25;5.40;;;14.80;99.90;;;;;;2071966;28;20096;-72
2021/10/27 00:58:16;;;;;;;8.93;5.38;;;14.90;99.90;;;;;;2075165;28;20017;-72
2021/10/27 00:59:16;;;;;;;6.97;4.80;;;14.90;99.90;;;;;;2079250;28;20028;-72
2021/10/27 01:00:17;;;;;;;9.18;5.45;;;14.80;99.90;;;;;;2079739;28;20036;-72
2021/10/27 01:01:18;;;;;;;11.00;5.65;;;14.90;99.90;;;;;;2076359;28;20041;-72
2021/10/27 01:02:20;;;;;;;6.68;5.57;;;14.80;99.90;;;;;;2071119;28;20057;-71
2021/10/27 01:03:20;;;;;;;6.75;4.68;;;14.90;99.90;;;;;;2071178;28;20029;-71
2021/10/27 01:04:22;;;;;;;6.43;4.75;;;14.80;99.90;;;;;;2071541;28;20121;-72
2021/10/27 01:05:22;;;;;;;6.00;5.05;;;14.90;99.90;;;;;;2071627;28;20053;-72
2021/10/27 01:06:23;;;;;;;6.97;4.88;;;14.80;99.90;;;;;;2071525;28;20022;-72
2021/10/27 01:07:24;;;;;;;5.57;4.68;;;14.80;99.90;;;;;;2071622;28;20057;-71
2021/10/27 01:08:24;;;;;;;7.40;4.97;;;14.90;99.90;;;;;;2076448;28;20616;-72
2021/10/27 01:09:25;;;;;;;7.97;5.25;;;14.90;99.90;;;;;;2078513;28;20032;-72
2021/10/27 01:10:26;;;;;;;6.95;4.95;;;14.80;99.90;;;;;;2079485;28;20026;-72
2021/10/27 01:11:27;;;;;;;5.72;4.70;;;14.90;99.90;;;;;;2072642;28;20026;-72
2021/10/27 01:12:28;;;;;;;6.43;4.80;;;14.90;99.90;;;;;;2071467;28;20018;-72
2021/10/27 01:13:28;;;;;;;9.07;4.90;;;14.90;99.90;;;;;;2070950;28;20036;-71
2021/10/27 01:14:38;;;;;;;7.10;5.20;;;14.90;99.90;;;;;;2071028;28;20121;-71
2021/10/27 01:15:41;;;;;;;8.45;4.65;;;14.90;99.90;;;;;;2071298;28;20531;-71
2021/10/27 01:16:43;;;;;;;6.35;5.00;;;14.90;99.90;;;;;;2071617;28;20117;-71
2021/10/27 01:17:43;;;;;;;7.55;5.50;;;14.90;99.90;;;;;;2071835;28;20018;-71
2021/10/27 01:18:44;;;;;;;7.05;4.88;;;14.90;99.90;;;;;;2078830;28;20041;-72
2021/10/27 01:19:54;;;;;;;9.50;5.85;;;14.90;99.90;;;;;;2079815;28;20029;-72
2021/10/27 01:20:54;;;;;;;7.97;5.82;;;14.90;99.90;;;;;;2074745;28;20018;-71
2021/10/27 01:21:55;;;;;;;10.15;6.20;;;14.90;99.90;;;;;;2071612;28;20034;-71
2021/10/27 01:22:55;;;;;;;9.10;5.35;;;14.90;99.90;;;;;;2070729;28;20474;-71
2021/10/27 01:23:58;;;;;;;7.03;5.53;;;14.90;99.90;;;;;;2070976;28;20080;-72
2021/10/27 01:24:59;;;;;;;7.95;5.55;;;14.90;99.90;;;;;;2070407;28;20037;-71
2021/10/27 01:26:09;;;;;;;8.20;5.10;;;14.90;99.90;;;;;;2075300;28;20030;-71
2021/10/27 01:27:10;;;;;;;8.30;5.18;;;14.90;99.90;;;;;;2076507;28;20105;-71
2021/10/27 01:28:11;;;;;;;7.32;5.38;;;14.90;99.90;;;;;;2078498;28;20025;-71
2021/10/27 01:29:12;;;;;;;8.73;5.82;;;14.90;99.90;;;;;;2075447;28;20123;-72
2021/10/27 01:30:16;;;;;;;7.80;4.90;;;14.90;99.90;;;;;;2074204;28;20071;-72
2021/10/27 01:31:16;;;;;;;7.03;5.07;;;14.90;99.90;;;;;;2079662;28;20033;-72
2021/10/27 01:32:38;;;;;;;7.63;5.07;;;14.90;99.90;;;;;;2075511;28;20116;-72
2021/10/27 01:33:40;;;;;;;10.68;5.60;;;14.90;99.90;;;;;;2076505;28;20032;-72
2021/10/27 01:34:40;;;;;;;6.90;5.25;;;14.90;99.90;;;;;;2076088;28;20013;-71
2021/10/27 01:35:41;;;;;;;6.57;5.30;;;14.90;99.90;;;;;;2081485;28;20021;-72
2021/10/27 01:36:42;;;;;;;8.93;5.18;;;14.90;99.90;;;;;;2074427;28;20035;-72
2021/10/27 01:37:44;;;;;;;7.60;5.50;;;14.90;99.90;;;;;;2076458;28;20041;-72
2021/10/27 01:38:47;;;;;;;9.35;5.47;;;14.90;99.90;;;;;;2073125;28;20347;-72
2021/10/27 01:39:47;;;;;;;9.13;5.07;;;14.90;99.90;;;;;;2071945;28;20502;-72
2021/10/27 01:40:48;;;;;;;7.30;5.93;;;14.90;99.90;;;;;;2078915;28;20367;-71
2021/10/27 01:41:50;;;;;;;10.68;6.38;;;14.90;99.90;;;;;;2077550;28;20029;-72
2021/10/27 01:42:55;;;;;;;6.25;4.88;;;14.90;99.90;;;;;;2077375;28;20470;-72
2021/10/27 01:43:57;;;;;;;8.23;5.38;;;14.90;99.90;;;;;;2079494;28;20559;-72
2021/10/27 01:44:58;;;;;;;7.38;4.80;;;14.90;99.90;;;;;;2076462;28;20030;-72
2021/10/27 01:45:58;;;;;;;8.40;5.45;;;14.90;99.90;;;;;;2071270;28;20101;-72
2021/10/27 01:46:59;;;;;;;10.45;6.03;;;14.90;99.90;;;;;;2076269;28;20038;-72
2021/10/27 01:48:00;;;;;;;7.93;5.10;;;14.90;99.90;;;;;;2079748;28;20037;-72
2021/10/27 01:49:07;;;;;;;8.55;5.00;;;14.90;99.90;;;;;;2079077;28;20426;-72
2021/10/27 01:50:08;;;;;;;7.28;5.63;;;14.90;99.90;;;;;;2073723;28;20034;-72
2021/10/27 01:51:08;;;;;;;10.00;6.03;;;14.90;99.90;;;;;;2071276;28;20037;-72
2021/10/27 01:52:09;;;;;;;9.57;5.45;;;14.90;99.90;;;;;;2073748;28;20061;-72
2021/10/27 01:53:10;;;;;;;6.35;5.28;;;14.90;99.90;;;;;;2075947;28;20529;-72
2021/10/27 01:54:11;;;;;;;8.23;5.40;;;15.00;99.90;;;;;;2074225;28;20524;-72
2021/10/27 01:55:11;;;;;;;7.82;5.60;;;14.90;99.90;;;;;;2072723;28;20453;-72
2021/10/27 01:56:12;;;;;;;9.15;5.65;;;15.00;99.90;;;;;;2071209;28;20101;-72
2021/10/27 01:57:13;;;;;;;7.40;5.10;;;15.00;99.90;;;;;;2071533;28;20045;-72
2021/10/27 01:58:14;;;;;;;9.75;5.57;;;15.00;99.90;;;;;;2070799;28;20022;-72
2021/10/27 01:59:14;;;;;;;8.02;5.50;;;15.00;99.90;;;;;;2075134;28;20053;-72
2021/10/27 02:00:15;;;;;;;10.20;5.53;;;15.00;99.90;;;;;;2079056;28;20080;-71
2021/10/27 02:01:16;;;;;;;7.57;5.50;;;14.90;99.90;;;;;;2077371;28;20029;-72
2021/10/27 02:02:17;;;;;;;17.10;5.72;;;14.90;99.90;;;;;;2063837;28;20037;-72
2021/10/27 02:03:17;;;;;;;12.50;5.80;;;15.00;99.90;;;;;;2063830;28;20030;-71
2021/10/27 02:04:19;;;;;;;7.35;5.05;;;15.00;99.90;;;;;;2076855;28;20358;-72
2021/10/27 02:05:20;;;;;;;9.77;5.25;;;14.90;99.90;;;;;;2080170;28;20049;-72
2021/10/27 02:06:21;;;;;;;7.47;4.40;;;14.90;99.90;;;;;;2075377;28;20014;-71
2021/10/27 02:07:21;;;;;;;7.60;5.20;;;14.90;99.90;;;;;;2080718;28;20086;-72
2021/10/27 02:08:22;;;;;;;8.13;5.03;;;15.00;99.90;;;;;;2071720;28;20033;-72
2021/10/27 02:09:22;;;;;;;8.68;5.60;;;15.00;99.90;;;;;;2072008;28;20026;-71
2021/10/27 02:10:23;;;;;;;10.23;5.60;;;15.00;99.90;;;;;;2072123;28;20025;-71
2021/10/27 02:11:24;;;;;;;6.68;5.38;;;15.00;99.90;;;;;;2072807;28;20404;-71
2021/10/27 02:12:25;;;;;;;9.27;5.03;;;15.00;99.90;;;;;;2072567;28;20080;-71
2021/10/27 02:13:27;;;;;;;7.90;5.47;;;14.90;99.90;;;;;;2072818;28;20021;-71
2021/10/27 02:14:28;;;;;;;7.18;5.25;;;15.00;99.90;;;;;;2072649;28;20029;-72
2021/10/27 02:15:28;;;;;;;11.13;6.10;;;15.00;99.90;;;;;;2072843;28;20026;-72
2021/10/27 02:16:30;;;;;;;15.23;6.10;;;15.00;99.90;;;;;;2072568;28;20040;-72
2021/10/27 02:17:31;;;;;;;9.85;5.25;;;15.00;99.90;;;;;;2072552;28;20029;-72
2021/10/27 02:18:31;;;;;;;10.05;5.38;;;14.90;99.90;;;;;;2072075;28;20030;-72
2021/10/27 02:19:32;;;;;;;7.18;5.40;;;15.00;99.90;;;;;;2079485;28;20023;-72
2021/10/27 02:20:32;;;;;;;8.00;5.53;;;15.00;99.90;;;;;;2078805;28;20021;-72
2021/10/27 02:21:33;;;;;;;9.27;5.22;;;14.90;99.90;;;;;;2074308;28;20032;-72
2021/10/27 02:22:34;;;;;;;12.18;5.97;;;15.00;99.90;;;;;;2074174;28;20040;-72
2021/10/27 02:23:35;;;;;;;7.70;5.07;;;15.00;99.90;;;;;;2074348;28;20101;-72
2021/10/27 02:24:35;;;;;;;8.10;6.00;;;15.00;99.90;;;;;;2080127;28;20029;-71
2021/10/27 02:25:36;;;;;;;7.43;5.55;;;15.00;99.90;;;;;;2081489;28;20599;-72
2021/10/27 02:26:36;;;;;;;11.82;5.43;;;15.00;99.90;;;;;;2081929;28;20439;-72
2021/10/27 02:27:37;;;;;;;9.10;5.55;;;15.00;99.90;;;;;;2082147;28;20029;-72
2021/10/27 02:28:38;;;;;;;8.70;4.90;;;15.00;99.90;;;;;;2080405;28;20382;-71
2021/10/27 02:29:38;;;;;;;9.10;5.28;;;15.00;99.90;;;;;;2073998;28;20462;-71
2021/10/27 02:30:39;;;;;;;9.25;5.47;;;15.00;99.90;;;;;;2074472;28;20034;-72
2021/10/27 02:31:41;;;;;;;6.15;5.10;;;15.00;99.90;;;;;;2074074;28;20026;-72
2021/10/27 02:32:41;;;;;;;7.50;5.05;;;15.00;99.90;;;;;;2074078;28;20038;-72
2021/10/27 02:33:42;;;;;;;6.43;4.53;;;15.00;99.90;;;;;;2074028;28;20014;-72
2021/10/27 02:34:42;;;;;;;8.35;5.22;;;15.00;99.90;;;;;;2081036;28;20021;-72
2021/10/27 02:35:43;;;;;;;6.45;5.20;;;15.00;99.90;;;;;;2081066;28;20080;-72
2021/10/27 02:36:43;;;;;;;9.88;5.22;;;15.00;99.90;;;;;;2077792;28;20079;-72
2021/10/27 02:37:44;;;;;;;9.77;5.40;;;15.00;99.90;;;;;;2079124;28;20397;-71
2021/10/27 02:38:45;;;;;;;8.20;4.57;;;15.00;99.90;;;;;;2077011;28;20021;-71
2021/10/27 02:39:46;;;;;;;10.38;5.20;;;15.00;99.90;;;;;;2073456;28;20030;-72
2021/10/27 02:40:47;;;;;;;7.95;5.15;;;15.00;99.90;;;;;;2076803;28;20022;-72
2021/10/27 02:41:48;;;;;;;7.75;5.20;;;15.00;99.90;;;;;;2079227;28;20029;-72
2021/10/27 02:42:49;;;;;;;8.27;5.10;;;15.00;99.90;;;;;;2074317;28;20508;-72
2021/10/27 02:43:49;;;;;;;10.48;5.53;;;15.00;99.90;;;;;;2074071;28;20052;-72
2021/10/27 02:44:50;;;;;;;7.10;4.57;;;15.00;99.90;;;;;;2081414;28;20408;-72
2021/10/27 02:45:50;;;;;;;9.30;5.03;;;15.00;99.90;;;;;;2082319;28;20109;-72
2021/10/27 02:46:51;;;;;;;6.97;5.80;;;15.00;99.90;;;;;;2077797;28;20030;-71
2021/10/27 02:47:52;;;;;;;7.32;4.53;;;15.00;99.90;;;;;;2073657;28;20061;-72
2021/10/27 02:48:52;;;;;;;8.52;5.30;;;15.00;99.90;;;;;;2073682;28;20478;-72
2021/10/27 02:49:53;;;;;;;6.88;5.10;;;15.00;99.90;;;;;;2074065;28;20080;-72
2021/10/27 02:50:53;;;;;;;8.38;4.90;;;15.00;99.90;;;;;;2073914;28;20438;-72
2021/10/27 02:51:54;;;;;;;9.20;5.70;;;15.00;99.90;;;;;;2074362;28;20414;-72
2021/10/27 02:52:54;;;;;;;9.88;5.70;;;15.00;99.90;;;;;;2081032;28;20029;-72
2021/10/27 02:53:55;;;;;;;11.65;5.35;;;15.00;99.90;;;;;;2074078;28;20026;-72
2021/10/27 02:54:56;;;;;;;6.40;4.90;;;15.00;99.90;;;;;;2082025;28;20030;-72
2021/10/27 02:55:56;;;;;;;10.13;4.65;;;15.00;99.90;;;;;;2081437;28;20488;-72
2021/10/27 02:56:57;;;;;;;9.23;4.57;;;15.00;99.90;;;;;;2073819;28;20441;-71
2021/10/27 02:58:00;;;;;;;7.57;4.75;;;15.00;99.90;;;;;;2073923;28;20523;-71
2021/10/27 02:59:00;;;;;;;10.15;4.93;;;15.10;99.90;;;;;;2075544;28;20492;-71
2021/10/27 03:00:01;;;;;;;7.32;4.38;;;15.00;99.90;;;;;;2082154;28;20362;-71
2021/10/27 03:01:01;;;;;;;12.15;5.32;;;15.10;99.90;;;;;;2080382;28;20034;-71
2021/10/27 03:02:02;;;;;;;7.45;4.38;;;15.00;99.90;;;;;;2073134;28;20037;-71
2021/10/27 03:03:03;;;;;;;6.82;4.47;;;15.00;99.90;;;;;;2072781;28;20363;-71
2021/10/27 03:04:04;;;;;;;14.30;5.35;;;15.00;99.90;;;;;;2073790;28;20481;-71
2021/10/27 03:05:06;;;;;;;6.18;4.10;;;15.10;99.90;;;;;;2080703;28;20433;-71
2021/10/27 03:06:07;;;;;;;9.85;4.50;;;15.10;99.90;;;;;;2081348;28;20025;-72
2021/10/27 03:07:07;;;;;;;8.35;4.38;;;15.10;99.90;;;;;;2080310;28;20061;-72
2021/10/27 03:08:08;;;;;;;9.07;4.45;;;15.10;99.90;;;;;;2064778;28;20121;-71
2021/10/27 03:09:08;;;;;;;8.75;4.63;;;15.10;99.90;;;;;;2072060;28;20036;-72
2021/10/27 03:10:09;;;;;;;5.95;4.22;;;15.10;99.90;;;;;;2072973;28;20483;-72
2021/10/27 03:11:09;;;;;;;8.82;4.43;;;15.10;99.90;;;;;;2072259;28;20030;-72
2021/10/27 03:12:11;;;;;;;8.98;4.50;;;15.10;99.90;;;;;;2072994;28;20363;-72
2021/10/27 03:13:11;;;;;;;7.07;4.70;;;15.10;99.90;;;;;;2079249;28;20546;-71
2021/10/27 03:14:12;;;;;;;6.30;4.38;;;15.10;99.90;;;;;;2080906;28;20436;-71
2021/10/27 03:15:13;;;;;;;11.50;4.70;;;15.10;99.90;;;;;;2080856;28;20484;-71
2021/10/27 03:16:14;;;;;;;8.48;4.75;;;15.10;99.90;;;;;;2073264;28;20385;-71
2021/10/27 03:17:17;;;;;;;8.35;4.43;;;15.10;99.90;;;;;;2072750;28;20061;-71
2021/10/27 03:18:18;;;;;;;6.57;4.20;;;15.10;99.90;;;;;;2072140;28;20072;-71
2021/10/27 03:19:18;;;;;;;8.35;5.13;;;15.10;99.90;;;;;;2077364;28;20021;-72
2021/10/27 03:20:19;;;;;;;8.90;4.57;;;15.10;99.90;;;;;;2080765;28;20048;-72
2021/10/27 03:21:20;;;;;;;7.25;4.20;;;15.00;99.90;;;;;;2072691;28;20053;-72
2021/10/27 03:22:20;;;;;;;6.35;4.57;;;15.10;99.90;;;;;;2072506;28;20018;-72
2021/10/27 03:23:21;;;;;;;5.25;4.38;;;15.00;99.90;;;;;;2080671;28;20024;-72
2021/10/27 03:24:21;;;;;;;8.70;4.38;;;15.00;99.90;;;;;;2080747;28;20091;-72
2021/10/27 03:25:22;;;;;;;6.88;4.18;;;15.10;99.90;;;;;;2078816;28;20060;-72
2021/10/27 03:26:23;;;;;;;9.45;4.72;;;15.10;99.90;;;;;;2079883;28;20025;-72
2021/10/27 03:27:23;;;;;;;9.88;4.85;;;15.10;99.90;;;;;;2079503;28;20067;-72
2021/10/27 03:28:24;;;;;;;9.63;5.00;;;15.10;99.90;;;;;;2079389;28;20025;-72
2021/10/27 03:29:25;;;;;;;7.35;4.88;;;15.10;99.90;;;;;;2074847;28;20579;-72
2021/10/27 03:30:25;;;;;;;7.47;4.35;;;15.10;99.90;;;;;;2077362;28;20037;-72
2021/10/27 03:31:26;;;;;;;10.32;5.05;;;15.10;99.90;;;;;;2072464;28;20032;-71
2021/10/27 03:32:27;;;;;;;8.48;4.68;;;15.10;99.90;;;;;;2072278;28;20037;-72
2021/10/27 03:33:27;;;;;;;8.27;4.60;;;15.10;99.90;;;;;;2080454;28;20071;-71
2021/10/27 03:34:28;;;;;;;8.27;4.68;;;15.10;99.90;;;;;;2080803;28;20025;-71
2021/10/27 03:35:29;;;;;;;10.38;5.47;;;15.10;99.90;;;;;;2075562;28;20037;-72
2021/10/27 03:36:30;;;;;;;7.70;4.72;;;15.10;99.90;;;;;;2075465;28;20018;-72
2021/10/27 03:37:31;;;;;;;8.55;4.50;;;15.00;99.90;;;;;;2075327;28;20163;-72
2021/10/27 03:38:32;;;;;;;8.70;4.82;;;15.10;99.90;;;;;;2080041;28;20025;-72
2021/10/27 03:39:33;;;;;;;8.07;5.13;;;15.10;99.90;;;;;;2080682;28;20079;-72
2021/10/27 03:40:33;;;;;;;10.13;5.07;;;15.00;99.90;;;;;;2080461;28;20029;-72
2021/10/27 03:41:34;;;;;;;7.25;4.43;;;15.10;99.90;;;;;;2077617;28;20025;-72
2021/10/27 03:42:34;;;;;;;9.05;4.38;;;15.10;99.90;;;;;;2075022;28;20041;-72
2021/10/27 03:43:35;;;;;;;8.50;4.60;;;15.10;99.90;;;;;;2080721;28;20405;-71
2021/10/27 03:44:36;;;;;;;9.88;4.72;;;15.10;99.90;;;;;;2080527;28;20363;-71
2021/10/27 03:45:36;;;;;;;7.93;4.40;;;15.10;99.90;;;;;;2072496;28;20034;-71
2021/10/27 03:46:37;;;;;;;7.28;3.83;;;15.20;99.90;;;;;;2072119;28;20044;-72
2021/10/27 03:47:37;;;;;;;10.57;4.57;;;15.10;99.90;;;;;;2072566;28;20029;-72
2021/10/27 03:48:39;;;;;;;8.73;4.75;;;15.10;99.90;;;;;;2071671;28;20018;-72
2021/10/27 03:49:39;;;;;;;11.32;4.20;;;15.20;99.90;;;;;;2071905;28;20037;-72
2021/10/27 03:50:40;;;;;;;8.38;4.60;;;15.10;99.90;;;;;;2071668;28;20108;-72
2021/10/27 03:51:41;;;;;;;8.57;4.43;;;15.10;99.90;;;;;;2072392;28;20036;-71
2021/10/27 03:52:44;;;;;;;7.53;4.22;;;15.20;99.90;;;;;;2078799;28;20033;-72
2021/10/27 03:53:45;;;;;;;6.93;4.28;;;15.10;99.90;;;;;;2071483;28;20018;-71
2021/10/27 03:54:45;;;;;;;10.75;4.53;;;15.10;99.90;;;;;;2071549;28;20117;-72
2021/10/27 03:55:46;;;;;;;8.30;4.40;;;15.10;99.90;;;;;;2072365;28;20442;-72
2021/10/27 03:56:46;;;;;;;7.93;4.35;;;15.10;99.90;;;;;;2072256;28;20105;-72
2021/10/27 03:57:47;;;;;;;8.30;4.40;;;15.10;99.90;;;;;;2072441;28;20116;-72
2021/10/27 03:58:47;;;;;;;7.32;4.07;;;15.10;99.90;;;;;;2074617;28;20429;-72
2021/10/27 03:59:48;;;;;;;7.55;4.32;;;15.10;99.90;;;;;;2080728;28;20101;-72
2021/10/27 04:00:48;;;;;;;9.93;4.25;;;15.20;99.90;;;;;;2080195;28;20036;-72
2021/10/27 04:01:49;;;;;;;8.75;4.90;;;15.20;99.90;;;;;;2078133;28;20354;-72
2021/10/27 04:02:49;;;;;;;6.57;4.32;;;15.20;99.90;;;;;;2079490;28;20056;-72
2021/10/27 04:03:50;;;;;;;8.77;4.28;;;15.10;99.90;;;;;;2080389;28;20479;-72
2021/10/27 04:04:51;;;;;;;10.88;4.45;;;15.20;99.90;;;;;;2080155;28;20025;-72
2021/10/27 04:05:51;;;;;;;8.80;4.22;;;15.20;99.90;;;;;;2078694;28;20040;-72
2021/10/27 04:06:52;;;;;;;7.38;4.57;;;15.10;99.90;;;;;;2072270;28;20026;-72
2021/10/27 04:07:52;;;;;;;9.38;4.30;;;15.10;99.90;;;;;;2071571;28;20048;-72
2021/10/27 04:08:53;;;;;;;8.23;3.83;;;15.10;99.90;;;;;;2070691;28;20025;-72
2021/10/27 04:09:53;;;;;;;7.78;3.92;;;15.20;99.90;;;;;;2071527;28;20373;-72
2021/10/27 04:10:54;;;;;;;8.10;4.57;;;15.20;99.90;;;;;;2072238;28;20018;-72
2021/10/27 04:11:55;;;;;;;8.30;4.30;;;15.10;99.90;;;;;;2072407;28;20167;-71
2021/10/27 04:12:55;;;;;;;12.82;4.53;;;15.20;99.90;;;;;;2075157;28;20038;-71
2021/10/27 04:13:56;;;;;;;9.18;3.92;;;15.20;99.90;;;;;;2080464;28;20025;-71
2021/10/27 04:14:57;;;;;;;7.78;4.13;;;15.20;99.90;;;;;;2080524;28;20022;-72
2021/10/27 04:15:57;;;;;;;8.88;4.25;;;15.20;99.90;;;;;;2075237;28;20085;-72
2021/10/27 04:16:58;;;;;;;6.75;3.80;;;15.20;99.90;;;;;;2072030;28;20148;-72
2021/10/27 04:17:59;;;;;;;10.15;4.18;;;15.20;99.90;;;;;;2071254;28;20080;-72
2021/10/27 04:19:00;;;;;;;6.97;3.88;;;15.20;99.90;;;;;;2073396;28;20054;-72
2021/10/27 04:20:04;;;;;;;6.47;3.47;;;15.20;99.90;;;;;;2080187;28;20037;-72
2021/10/27 04:21:05;;;;;;;6.50;4.15;;;15.20;99.90;;;;;;2074390;28;20037;-72
2021/10/27 04:22:06;;;;;;;7.30;3.58;;;15.20;99.90;;;;;;2071982;28;20105;-72
2021/10/27 04:23:07;;;;;;;8.10;3.40;;;15.20;99.90;;;;;;2076353;28;20037;-72
2021/10/27 04:24:08;;;;;;;7.80;4.28;;;15.20;99.90;;;;;;2079369;28;20545;-72
2021/10/27 04:25:11;;;;;;;8.55;3.80;;;15.20;99.90;;;;;;2079250;28;20715;-72
2021/10/27 04:26:12;;;;;;;9.20;3.65;;;15.20;99.90;;;;;;2082723;28;20033;-72
2021/10/27 04:27:12;;;;;;;8.50;4.15;;;15.20;99.90;;;;;;2079747;28;20121;-71
2021/10/27 04:28:13;;;;;;;5.95;3.75;;;15.20;99.90;;;;;;2079312;28;20512;-72
2021/10/27 04:29:13;;;;;;;5.60;4.05;;;15.20;99.90;;;;;;2079705;28;20033;-72
2021/10/27 04:30:14;;;;;;;6.60;3.88;;;15.20;99.90;;;;;;2079868;28;20032;-72
2021/10/27 04:31:15;;;;;;;7.35;3.40;;;15.20;99.90;;;;;;2081944;28;20473;-72
2021/10/27 04:32:15;;;;;;;11.55;3.88;;;15.20;99.90;;;;;;2080753;28;20017;-72
2021/10/27 04:33:17;;;;;;;8.40;3.70;;;15.20;99.90;;;;;;2078727;28;20085;-72
2021/10/27 04:34:18;;;;;;;5.78;3.45;;;15.20;99.90;;;;;;2082668;28;20013;-72
2021/10/27 04:35:19;;;;;;;10.18;4.60;;;15.20;99.90;;;;;;2079469;28;20035;-72
2021/10/27 04:36:20;;;;;;;9.02;4.45;;;15.20;99.90;;;;;;2078475;28;20025;-72
2021/10/27 04:37:21;;;;;;;10.45;4.20;;;15.20;99.90;;;;;;2079077;28;20072;-72
2021/10/27 04:38:21;;;;;;;8.15;3.83;;;15.20;99.90;;;;;;2079493;28;20458;-72
2021/10/27 04:39:22;;;;;;;9.23;3.83;;;15.20;99.90;;;;;;2082790;28;20045;-72
2021/10/27 04:40:23;;;;;;;6.45;3.75;;;15.20;99.90;;;;;;2080978;28;20048;-72
2021/10/27 04:41:23;;;;;;;6.45;3.28;;;15.20;99.90;;;;;;2078758;28;20033;-72
2021/10/27 04:42:24;;;;;;;7.43;3.50;;;15.20;99.90;;;;;;2078698;28;20037;-72
2021/10/27 04:43:24;;;;;;;6.90;3.40;;;15.20;99.90;;;;;;2072285;28;20034;-72
2021/10/27 04:44:25;;;;;;;8.27;3.55;;;15.20;99.90;;;;;;2060889;28;20021;-72
2021/10/27 04:45:26;;;;;;;10.43;3.85;;;15.30;99.90;;;;;;2077434;28;20021;-72
2021/10/27 04:46:27;;;;;;;6.93;3.20;;;15.20;99.90;;;;;;2082304;28;20088;-71
2021/10/27 04:47:28;;;;;;;7.00;3.20;;;15.20;99.90;;;;;;2079903;28;20033;-72
2021/10/27 04:48:28;;;;;;;6.88;3.88;;;15.20;99.90;;;;;;2077948;28;20021;-72
2021/10/27 04:49:32;;;;;;;10.77;3.70;;;15.30;99.90;;;;;;2082475;28;20068;-72
2021/10/27 04:50:34;;;;;;;8.50;3.63;;;15.20;99.90;;;;;;2078603;28;20021;-72
2021/10/27 04:51:34;;;;;;;11.18;3.88;;;15.30;99.90;;;;;;2079870;28;20017;-72
2021/10/27 04:52:35;;;;;;;7.65;3.55;;;15.20;99.90;;;;;;2079750;28;20029;-72
2021/10/27 04:53:36;;;;;;;7.07;4.18;;;15.30;99.90;;;;;;2079996;28;20018;-72
2021/10/27 04:54:36;;;;;;;7.90;3.72;;;15.20;99.90;;;;;;2079871;28;20024;-71
2021/10/27 04:55:37;;;;;;;7.70;3.17;;;15.20;99.90;;;;;;2079635;28;20043;-72
2021/10/27 04:56:37;;;;;;;6.15;3.88;;;15.20;99.90;;;;;;2080003;28;20033;-72
2021/10/27 04:57:38;;;;;;;5.43;3.92;;;15.20;99.90;;;;;;2080124;28;20032;-72
2021/10/27 04:58:39;;;;;;;6.20;4.05;;;15.30;99.90;;;;;;2079500;28;20493;-72
2021/10/27 04:59:43;;;;;;;9.93;3.58;;;15.20;99.90;;;;;;2072122;28;20475;-72
2021/10/27 05:00:43;;;;;;;8.95;3.85;;;15.20;99.90;;;;;;2071831;28;20029;-72
2021/10/27 05:01:47;;;;;;;8.35;3.95;;;15.20;99.90;;;;;;2075931;28;20017;-72
2021/10/27 05:02:48;;;;;;;7.10;3.13;;;15.20;99.90;;;;;;2079936;28;20025;-72
2021/10/27 05:03:48;;;;;;;8.43;3.92;;;15.20;99.90;;;;;;2079319;28;20057;-72
2021/10/27 05:04:49;;;;;;;7.90;3.63;;;15.20;99.90;;;;;;2076606;28;20025;-72
2021/10/27 05:05:53;;;;;;;7.00;3.63;;;15.20;99.90;;;;;;2078694;28;20037;-72
2021/10/27 05:06:55;;;;;;;8.75;3.65;;;15.30;99.90;;;;;;2071962;28;20378;-72
2021/10/27 05:07:59;;;;;;;5.78;3.55;;;15.30;99.90;;;;;;2071093;28;20064;-72
2021/10/27 05:08:59;;;;;;;6.80;3.63;;;15.20;99.90;;;;;;2071002;28;20026;-72
2021/10/27 05:10:00;;;;;;;9.45;4.10;;;15.20;99.90;;;;;;2079655;28;20074;-72
2021/10/27 05:11:01;;;;;;;5.95;3.75;;;15.20;99.90;;;;;;2079821;28;20431;-72
2021/10/27 05:12:04;;;;;;;5.95;3.53;;;15.20;99.90;;;;;;2079875;28;20112;-72
2021/10/27 05:13:04;;;;;;;9.13;4.18;;;15.20;99.90;;;;;;2073065;28;20482;-72
2021/10/27 05:14:05;;;;;;;8.93;3.80;;;15.20;99.90;;;;;;2070765;28;20434;-72
2021/10/27 05:15:06;;;;;;;6.28;3.70;;;15.20;99.90;;;;;;2071187;28;20061;-72
2021/10/27 05:16:07;;;;;;;8.25;3.65;;;15.30;99.90;;;;;;2071445;28;20026;-72
2021/10/27 05:17:11;;;;;;;8.20;3.85;;;15.20;99.90;;;;;;2071688;28;20021;-72